sensor_id;sensor_type;location;lat;lon;timestamp;temperature;humidity
66140;DHT22;52945;51.908;8.364;2023-03-05T00:02:56;6.70;65.20
66140;DHT22;52945;51.908;8.364;2023-03-05T00:05:57;6.70;65.40
66140;DHT22;52945;51.908;8.364;2023-03-05T00:08:58;6.70;65.40
66140;DHT22;52945;51.908;8.364;2023-03-05T00:11:59;6.70;65.40
66140;DHT22;52945;51.908;8.364;2023-03-05T00:14:59;6.70;65.40
66140;DHT22;52945;51.908;8.364;2023-03-05T00:18:00;6.60;65.40
66140;DHT22;52945;51.908;8.364;2023-03-05T00:21:01;6.70;65.50
66140;DHT22;52945;51.908;8.364;2023-03-05T00:24:03;6.60;65.60
66140;DHT22;52945;51.908;8.364;2023-03-05T00:27:05;6.60;65.80
66140;DHT22;52945;51.908;8.364;2023-03-05T00:30:06;6.60;65.90
66140;DHT22;52945;51.908;8.364;2023-03-05T00:33:08;6.60;66.00
66140;DHT22;52945;51.908;8.364;2023-03-05T00:36:10;6.60;66.00
66140;DHT22;52945;51.908;8.364;2023-03-05T00:39:11;6.60;66.00
66140;DHT22;52945;51.908;8.364;2023-03-05T00:42:12;6.50;66.20
66140;DHT22;52945;51.908;8.364;2023-03-05T00:45:12;6.60;66.20
66140;DHT22;52945;51.908;8.364;2023-03-05T00:48:13;6.50;66.30
66140;DHT22;52945;51.908;8.364;2023-03-05T00:51:14;6.50;66.30
66140;DHT22;52945;51.908;8.364;2023-03-05T00:54:14;6.50;66.50
66140;DHT22;52945;51.908;8.364;2023-03-05T00:57:15;6.50;66.70
66140;DHT22;52945;51.908;8.364;2023-03-05T01:00:16;6.50;66.60
66140;DHT22;52945;51.908;8.364;2023-03-05T01:03:17;6.50;67.10
66140;DHT22;52945;51.908;8.364;2023-03-05T01:06:18;6.60;67.00
66140;DHT22;52945;51.908;8.364;2023-03-05T01:09:19;6.50;67.20
66140;DHT22;52945;51.908;8.364;2023-03-05T01:12:21;6.60;67.30
66140;DHT22;52945;51.908;8.364;2023-03-05T01:15:22;6.60;67.40
66140;DHT22;52945;51.908;8.364;2023-03-05T01:18:23;6.50;67.70
66140;DHT22;52945;51.908;8.364;2023-03-05T01:21:24;6.40;67.70
66140;DHT22;52945;51.908;8.364;2023-03-05T01:24:25;6.50;68.00
66140;DHT22;52945;51.908;8.364;2023-03-05T01:27:26;6.40;68.20
66140;DHT22;52945;51.908;8.364;2023-03-05T01:30:26;6.40;68.20
66140;DHT22;52945;51.908;8.364;2023-03-05T01:33:27;6.40;68.50
66140;DHT22;52945;51.908;8.364;2023-03-05T01:36:27;6.40;68.50
66140;DHT22;52945;51.908;8.364;2023-03-05T01:39:28;6.30;68.50
66140;DHT22;52945;51.908;8.364;2023-03-05T01:42:29;6.40;68.50
66140;DHT22;52945;51.908;8.364;2023-03-05T01:45:30;6.40;68.60
66140;DHT22;52945;51.908;8.364;2023-03-05T01:48:32;6.40;68.80
66140;DHT22;52945;51.908;8.364;2023-03-05T01:52:21;6.40;68.70
66140;DHT22;52945;51.908;8.364;2023-03-05T01:55:03;6.50;68.50
66140;DHT22;52945;51.908;8.364;2023-03-05T01:58:09;6.40;68.80
66140;DHT22;52945;51.908;8.364;2023-03-05T02:01:11;6.30;68.80
66140;DHT22;52945;51.908;8.364;2023-03-05T02:04:15;6.30;68.90
66140;DHT22;52945;51.908;8.364;2023-03-05T02:07:17;6.20;69.10
66140;DHT22;52945;51.908;8.364;2023-03-05T02:10:18;6.30;69.20
66140;DHT22;52945;51.908;8.364;2023-03-05T02:13:31;6.30;69.30
66140;DHT22;52945;51.908;8.364;2023-03-05T02:16:33;6.20;69.10
66140;DHT22;52945;51.908;8.364;2023-03-05T02:19:50;6.30;69.20
66140;DHT22;52945;51.908;8.364;2023-03-05T02:22:51;6.20;69.40
66140;DHT22;52945;51.908;8.364;2023-03-05T02:25:52;6.30;69.20
66140;DHT22;52945;51.908;8.364;2023-03-05T02:28:56;6.30;69.40
66140;DHT22;52945;51.908;8.364;2023-03-05T02:31:58;6.20;69.20
66140;DHT22;52945;51.908;8.364;2023-03-05T02:34:59;6.20;69.50
66140;DHT22;52945;51.908;8.364;2023-03-05T02:37:59;6.20;69.40
66140;DHT22;52945;51.908;8.364;2023-03-05T02:41:00;6.30;69.40
66140;DHT22;52945;51.908;8.364;2023-03-05T02:44:01;6.30;69.30
66140;DHT22;52945;51.908;8.364;2023-03-05T02:47:02;6.20;69.40
66140;DHT22;52945;51.908;8.364;2023-03-05T02:50:04;6.20;69.40
66140;DHT22;52945;51.908;8.364;2023-03-05T02:53:05;6.20;69.40
66140;DHT22;52945;51.908;8.364;2023-03-05T02:56:06;6.20;69.30
66140;DHT22;52945;51.908;8.364;2023-03-05T02:59:06;6.20;69.40
66140;DHT22;52945;51.908;8.364;2023-03-05T03:02:07;6.20;69.50
66140;DHT22;52945;51.908;8.364;2023-03-05T03:05:08;6.20;69.60
66140;DHT22;52945;51.908;8.364;2023-03-05T03:08:09;6.10;69.50
66140;DHT22;52945;51.908;8.364;2023-03-05T03:11:10;6.20;69.60
66140;DHT22;52945;51.908;8.364;2023-03-05T03:14:12;6.10;69.80
66140;DHT22;52945;51.908;8.364;2023-03-05T03:17:15;6.10;69.90
66140;DHT22;52945;51.908;8.364;2023-03-05T03:20:17;6.20;69.80
66140;DHT22;52945;51.908;8.364;2023-03-05T03:23:18;6.20;69.80
66140;DHT22;52945;51.908;8.364;2023-03-05T03:26:19;6.20;70.10
66140;DHT22;52945;51.908;8.364;2023-03-05T03:29:19;6.10;70.20
66140;DHT22;52945;51.908;8.364;2023-03-05T03:32:20;6.10;70.00
66140;DHT22;52945;51.908;8.364;2023-03-05T03:35:20;6.10;70.10
66140;DHT22;52945;51.908;8.364;2023-03-05T03:38:21;6.10;70.30
66140;DHT22;52945;51.908;8.364;2023-03-05T03:41:22;6.10;70.30
66140;DHT22;52945;51.908;8.364;2023-03-05T03:44:22;6.10;70.30
66140;DHT22;52945;51.908;8.364;2023-03-05T03:47:23;6.10;70.40
66140;DHT22;52945;51.908;8.364;2023-03-05T03:50:24;6.10;70.40
66140;DHT22;52945;51.908;8.364;2023-03-05T03:53:25;6.00;70.60
66140;DHT22;52945;51.908;8.364;2023-03-05T03:56:25;6.10;70.90
66140;DHT22;52945;51.908;8.364;2023-03-05T03:59:26;6.00;70.80
66140;DHT22;52945;51.908;8.364;2023-03-05T04:02:27;6.10;70.80
66140;DHT22;52945;51.908;8.364;2023-03-05T04:05:27;6.00;71.10
66140;DHT22;52945;51.908;8.364;2023-03-05T04:08:28;6.00;71.10
66140;DHT22;52945;51.908;8.364;2023-03-05T04:11:28;6.00;70.80
66140;DHT22;52945;51.908;8.364;2023-03-05T04:14:29;6.00;71.00
66140;DHT22;52945;51.908;8.364;2023-03-05T04:17:29;6.00;71.00
66140;DHT22;52945;51.908;8.364;2023-03-05T04:20:32;6.00;71.00
66140;DHT22;52945;51.908;8.364;2023-03-05T04:23:32;6.00;70.90
66140;DHT22;52945;51.908;8.364;2023-03-05T04:26:33;6.00;70.90
66140;DHT22;52945;51.908;8.364;2023-03-05T04:29:34;6.00;70.90
66140;DHT22;52945;51.908;8.364;2023-03-05T04:32:35;6.00;70.90
66140;DHT22;52945;51.908;8.364;2023-03-05T04:35:36;6.00;70.80
66140;DHT22;52945;51.908;8.364;2023-03-05T04:38:36;6.00;71.10
66140;DHT22;52945;51.908;8.364;2023-03-05T04:41:37;6.00;70.90
66140;DHT22;52945;51.908;8.364;2023-03-05T04:44:38;6.00;70.90
66140;DHT22;52945;51.908;8.364;2023-03-05T04:47:38;6.00;70.90
66140;DHT22;52945;51.908;8.364;2023-03-05T04:50:39;6.00;70.70
66140;DHT22;52945;51.908;8.364;2023-03-05T04:53:40;5.90;70.90
66140;DHT22;52945;51.908;8.364;2023-03-05T04:56:40;5.90;70.90
66140;DHT22;52945;51.908;8.364;2023-03-05T04:59:41;5.90;71.00
66140;DHT22;52945;51.908;8.364;2023-03-05T05:02:42;5.90;70.80
66140;DHT22;52945;51.908;8.364;2023-03-05T05:05:43;5.90;70.80
66140;DHT22;52945;51.908;8.364;2023-03-05T05:08:44;5.90;70.60
66140;DHT22;52945;51.908;8.364;2023-03-05T05:11:44;5.90;70.80
66140;DHT22;52945;51.908;8.364;2023-03-05T05:14:45;5.90;70.90
66140;DHT22;52945;51.908;8.364;2023-03-05T05:17:46;5.90;70.80
66140;DHT22;52945;51.908;8.364;2023-03-05T05:20:47;5.90;70.80
66140;DHT22;52945;51.908;8.364;2023-03-05T05:23:48;5.90;70.80
66140;DHT22;52945;51.908;8.364;2023-03-05T05:26:48;5.90;71.00
66140;DHT22;52945;51.908;8.364;2023-03-05T05:29:49;5.90;71.00
66140;DHT22;52945;51.908;8.364;2023-03-05T05:32:50;5.90;71.00
66140;DHT22;52945;51.908;8.364;2023-03-05T05:35:50;5.90;71.10
66140;DHT22;52945;51.908;8.364;2023-03-05T05:38:51;5.90;71.30
66140;DHT22;52945;51.908;8.364;2023-03-05T05:41:51;5.90;71.30
66140;DHT22;52945;51.908;8.364;2023-03-05T05:44:52;6.00;71.50
66140;DHT22;52945;51.908;8.364;2023-03-05T05:47:54;5.80;71.70
66140;DHT22;52945;51.908;8.364;2023-03-05T05:50:55;5.80;71.90
66140;DHT22;52945;51.908;8.364;2023-03-05T05:53:56;5.90;71.90
66140;DHT22;52945;51.908;8.364;2023-03-05T05:56:57;5.90;71.90
66140;DHT22;52945;51.908;8.364;2023-03-05T05:59:57;5.80;72.10
66140;DHT22;52945;51.908;8.364;2023-03-05T06:02:58;5.80;72.20
66140;DHT22;52945;51.908;8.364;2023-03-05T06:05:58;5.70;72.40
66140;DHT22;52945;51.908;8.364;2023-03-05T06:08:59;5.80;72.70
66140;DHT22;52945;51.908;8.364;2023-03-05T06:12:00;5.70;73.10
66140;DHT22;52945;51.908;8.364;2023-03-05T06:15:01;5.70;73.30
66140;DHT22;52945;51.908;8.364;2023-03-05T06:18:01;5.70;73.50
66140;DHT22;52945;51.908;8.364;2023-03-05T06:21:05;5.80;73.40
66140;DHT22;52945;51.908;8.364;2023-03-05T06:24:06;5.70;73.50
66140;DHT22;52945;51.908;8.364;2023-03-05T06:27:06;5.70;73.80
66140;DHT22;52945;51.908;8.364;2023-03-05T06:30:08;5.70;74.00
66140;DHT22;52945;51.908;8.364;2023-03-05T06:33:09;5.70;74.00
66140;DHT22;52945;51.908;8.364;2023-03-05T06:36:15;5.70;74.50
66140;DHT22;52945;51.908;8.364;2023-03-05T06:39:16;5.70;74.50
66140;DHT22;52945;51.908;8.364;2023-03-05T06:42:16;5.70;74.80
66140;DHT22;52945;51.908;8.364;2023-03-05T06:45:18;5.60;74.80
66140;DHT22;52945;51.908;8.364;2023-03-05T06:48:19;5.70;74.80
66140;DHT22;52945;51.908;8.364;2023-03-05T06:51:25;5.70;74.90
66140;DHT22;52945;51.908;8.364;2023-03-05T06:54:26;5.70;74.70
66140;DHT22;52945;51.908;8.364;2023-03-05T06:57:27;5.70;74.70
66140;DHT22;52945;51.908;8.364;2023-03-05T07:00:27;5.70;74.80
66140;DHT22;52945;51.908;8.364;2023-03-05T07:03:30;5.70;75.00
66140;DHT22;52945;51.908;8.364;2023-03-05T07:06:35;5.70;74.90
66140;DHT22;52945;51.908;8.364;2023-03-05T07:09:37;5.70;74.90
66140;DHT22;52945;51.908;8.364;2023-03-05T07:12:43;5.70;75.10
66140;DHT22;52945;51.908;8.364;2023-03-05T07:15:44;5.70;75.20
66140;DHT22;52945;51.908;8.364;2023-03-05T07:18:45;5.80;75.10
66140;DHT22;52945;51.908;8.364;2023-03-05T07:21:45;5.70;75.10
66140;DHT22;52945;51.908;8.364;2023-03-05T07:24:46;5.80;75.30
66140;DHT22;52945;51.908;8.364;2023-03-05T07:27:47;5.70;75.20
66140;DHT22;52945;51.908;8.364;2023-03-05T07:30:59;5.70;75.40
66140;DHT22;52945;51.908;8.364;2023-03-05T07:34:02;5.70;75.30
66140;DHT22;52945;51.908;8.364;2023-03-05T07:37:02;5.70;75.40
66140;DHT22;52945;51.908;8.364;2023-03-05T07:40:04;5.80;75.40
66140;DHT22;52945;51.908;8.364;2023-03-05T07:43:05;5.80;75.20
66140;DHT22;52945;51.908;8.364;2023-03-05T07:46:07;5.80;75.20
66140;DHT22;52945;51.908;8.364;2023-03-05T07:49:08;5.80;75.40
66140;DHT22;52945;51.908;8.364;2023-03-05T07:52:09;5.80;75.30
66140;DHT22;52945;51.908;8.364;2023-03-05T07:55:10;5.90;75.10
66140;DHT22;52945;51.908;8.364;2023-03-05T07:58:11;5.90;75.20
66140;DHT22;52945;51.908;8.364;2023-03-05T08:01:13;5.90;75.10
66140;DHT22;52945;51.908;8.364;2023-03-05T08:04:14;5.90;75.20
66140;DHT22;52945;51.908;8.364;2023-03-05T08:07:15;6.00;75.20
66140;DHT22;52945;51.908;8.364;2023-03-05T08:10:16;6.00;75.00
66140;DHT22;52945;51.908;8.364;2023-03-05T08:13:16;6.10;75.00
66140;DHT22;52945;51.908;8.364;2023-03-05T08:16:19;6.10;75.00
66140;DHT22;52945;51.908;8.364;2023-03-05T08:19:20;6.00;74.40
66140;DHT22;52945;51.908;8.364;2023-03-05T08:22:21;6.10;74.20
66140;DHT22;52945;51.908;8.364;2023-03-05T08:25:21;6.10;74.40
66140;DHT22;52945;51.908;8.364;2023-03-05T08:28:22;6.20;74.50
66140;DHT22;52945;51.908;8.364;2023-03-05T08:31:24;6.20;74.30
66140;DHT22;52945;51.908;8.364;2023-03-05T08:34:25;6.20;74.30
66140;DHT22;52945;51.908;8.364;2023-03-05T08:37:26;6.20;74.00
66140;DHT22;52945;51.908;8.364;2023-03-05T08:40:26;6.30;74.10
66140;DHT22;52945;51.908;8.364;2023-03-05T08:43:27;6.30;73.80
66140;DHT22;52945;51.908;8.364;2023-03-05T08:46:28;6.40;72.40
66140;DHT22;52945;51.908;8.364;2023-03-05T08:49:29;6.30;72.40
66140;DHT22;52945;51.908;8.364;2023-03-05T08:52:29;6.40;72.40
66140;DHT22;52945;51.908;8.364;2023-03-05T08:55:30;6.40;72.30
66140;DHT22;52945;51.908;8.364;2023-03-05T08:58:31;6.30;72.20
66140;DHT22;52945;51.908;8.364;2023-03-05T09:01:32;6.50;72.40
66140;DHT22;52945;51.908;8.364;2023-03-05T09:04:32;6.50;72.40
66140;DHT22;52945;51.908;8.364;2023-03-05T09:07:33;6.50;72.40
66140;DHT22;52945;51.908;8.364;2023-03-05T09:10:33;6.50;72.40
66140;DHT22;52945;51.908;8.364;2023-03-05T09:13:34;6.50;72.20
66140;DHT22;52945;51.908;8.364;2023-03-05T09:16:35;6.50;72.10
66140;DHT22;52945;51.908;8.364;2023-03-05T09:19:37;6.50;71.60
66140;DHT22;52945;51.908;8.364;2023-03-05T09:22:38;6.50;71.80
66140;DHT22;52945;51.908;8.364;2023-03-05T09:25:39;6.60;71.90
66140;DHT22;52945;51.908;8.364;2023-03-05T09:28:40;6.60;72.10
66140;DHT22;52945;51.908;8.364;2023-03-05T09:31:41;6.60;72.30
66140;DHT22;52945;51.908;8.364;2023-03-05T09:34:43;6.70;72.00
66140;DHT22;52945;51.908;8.364;2023-03-05T09:37:43;6.70;71.30
66140;DHT22;52945;51.908;8.364;2023-03-05T09:41:06;6.70;70.80
66140;DHT22;52945;51.908;8.364;2023-03-05T09:47:55;6.80;70.50
66140;DHT22;52945;51.908;8.364;2023-03-05T09:51:02;6.80;70.40
66140;DHT22;52945;51.908;8.364;2023-03-05T09:54:16;6.90;70.50
66140;DHT22;52945;51.908;8.364;2023-03-05T09:57:22;6.90;70.00
66140;DHT22;52945;51.908;8.364;2023-03-05T10:00:38;7.00;69.60
66140;DHT22;52945;51.908;8.364;2023-03-05T10:07:16;7.10;68.70
66140;DHT22;52945;51.908;8.364;2023-03-05T10:10:22;7.20;68.90
66140;DHT22;52945;51.908;8.364;2023-03-05T10:13:29;7.20;68.50
66140;DHT22;52945;51.908;8.364;2023-03-05T10:20:06;7.50;66.90
66140;DHT22;52945;51.908;8.364;2023-03-05T10:33:31;7.60;64.10
66140;DHT22;52945;51.908;8.364;2023-03-05T10:36:49;7.60;64.40
66140;DHT22;52945;51.908;8.364;2023-03-05T10:46:22;7.60;64.20
66140;DHT22;52945;51.908;8.364;2023-03-05T10:49:29;7.60;65.40
66140;DHT22;52945;51.908;8.364;2023-03-05T10:52:37;7.60;65.80
66140;DHT22;52945;51.908;8.364;2023-03-05T10:55:40;7.70;65.90
66140;DHT22;52945;51.908;8.364;2023-03-05T10:58:41;7.60;65.70
66140;DHT22;52945;51.908;8.364;2023-03-05T11:01:41;7.60;65.70
66140;DHT22;52945;51.908;8.364;2023-03-05T11:05:00;7.60;65.70
66140;DHT22;52945;51.908;8.364;2023-03-05T11:11:22;7.70;64.20
66140;DHT22;52945;51.908;8.364;2023-03-05T11:14:26;7.90;64.60
66140;DHT22;52945;51.908;8.364;2023-03-05T11:17:32;8.00;62.50
66140;DHT22;52945;51.908;8.364;2023-03-05T11:20:35;8.10;61.20
66140;DHT22;52945;51.908;8.364;2023-03-05T11:23:36;8.20;61.10
66140;DHT22;52945;51.908;8.364;2023-03-05T11:26:37;8.20;60.30
66140;DHT22;52945;51.908;8.364;2023-03-05T11:29:49;8.20;60.60
66140;DHT22;52945;51.908;8.364;2023-03-05T11:33:16;8.20;59.90
66140;DHT22;52945;51.908;8.364;2023-03-05T11:36:30;8.20;59.60
66140;DHT22;52945;51.908;8.364;2023-03-05T11:39:33;8.20;60.00
66140;DHT22;52945;51.908;8.364;2023-03-05T11:42:37;8.20;60.00
66140;DHT22;52945;51.908;8.364;2023-03-05T11:45:39;8.20;60.10
66140;DHT22;52945;51.908;8.364;2023-03-05T11:48:42;8.20;59.70
66140;DHT22;52945;51.908;8.364;2023-03-05T11:51:59;8.10;59.40
66140;DHT22;52945;51.908;8.364;2023-03-05T11:55:14;8.20;59.80
66140;DHT22;52945;51.908;8.364;2023-03-05T12:01:43;8.50;58.80
66140;DHT22;52945;51.908;8.364;2023-03-05T12:04:45;8.80;58.60
66140;DHT22;52945;51.908;8.364;2023-03-05T12:07:52;9.00;56.30
66140;DHT22;52945;51.908;8.364;2023-03-05T12:10:54;9.10;52.60
66140;DHT22;52945;51.908;8.364;2023-03-05T12:14:08;9.40;51.60
66140;DHT22;52945;51.908;8.364;2023-03-05T12:17:30;9.70;52.30
66140;DHT22;52945;51.908;8.364;2023-03-05T12:20:43;9.70;49.90
66140;DHT22;52945;51.908;8.364;2023-03-05T12:23:51;9.70;50.80
66140;DHT22;52945;51.908;8.364;2023-03-05T12:29:52;10.00;51.60
66140;DHT22;52945;51.908;8.364;2023-03-05T12:32:54;10.00;52.30
66140;DHT22;52945;51.908;8.364;2023-03-05T12:39:40;10.00;51.80
66140;DHT22;52945;51.908;8.364;2023-03-05T12:42:58;9.90;52.30
66140;DHT22;52945;51.908;8.364;2023-03-05T12:46:35;9.70;50.30
66140;DHT22;52945;51.908;8.364;2023-03-05T12:49:39;9.70;49.20
66140;DHT22;52945;51.908;8.364;2023-03-05T12:52:45;9.80;48.20
66140;DHT22;52945;51.908;8.364;2023-03-05T12:55:58;9.80;48.40
66140;DHT22;52945;51.908;8.364;2023-03-05T12:58:59;9.70;48.70
66140;DHT22;52945;51.908;8.364;2023-03-05T13:02:16;9.80;48.60
66140;DHT22;52945;51.908;8.364;2023-03-05T13:05:33;9.80;48.40
66140;DHT22;52945;51.908;8.364;2023-03-05T13:08:35;9.80;48.10
66140;DHT22;52945;51.908;8.364;2023-03-05T13:11:37;9.70;46.80
66140;DHT22;52945;51.908;8.364;2023-03-05T13:21:02;9.50;49.00
66140;DHT22;52945;51.908;8.364;2023-03-05T13:24:17;9.40;49.10
66140;DHT22;52945;51.908;8.364;2023-03-05T13:27:28;9.40;49.80
66140;DHT22;52945;51.908;8.364;2023-03-05T13:30:29;9.40;50.60
66140;DHT22;52945;51.908;8.364;2023-03-05T13:33:33;9.20;49.90
66140;DHT22;52945;51.908;8.364;2023-03-05T13:36:35;9.30;50.70
66140;DHT22;52945;51.908;8.364;2023-03-05T13:39:56;9.30;50.70
66140;DHT22;52945;51.908;8.364;2023-03-05T13:43:14;9.30;51.30
66140;DHT22;52945;51.908;8.364;2023-03-05T13:46:35;9.20;51.60
66140;DHT22;52945;51.908;8.364;2023-03-05T13:49:37;9.20;52.30
66140;DHT22;52945;51.908;8.364;2023-03-05T13:52:38;9.20;52.90
66140;DHT22;52945;51.908;8.364;2023-03-05T13:55:39;9.10;53.10
66140;DHT22;52945;51.908;8.364;2023-03-05T14:01:55;9.10;52.80
66140;DHT22;52945;51.908;8.364;2023-03-05T14:04:56;9.20;52.80
66140;DHT22;52945;51.908;8.364;2023-03-05T14:07:56;9.20;52.90
66140;DHT22;52945;51.908;8.364;2023-03-05T14:10:59;9.10;53.40
66140;DHT22;52945;51.908;8.364;2023-03-05T14:14:16;9.20;53.30
66140;DHT22;52945;51.908;8.364;2023-03-05T14:17:39;9.30;53.00
66140;DHT22;52945;51.908;8.364;2023-03-05T14:24:11;9.30;51.90
66140;DHT22;52945;51.908;8.364;2023-03-05T14:27:17;9.30;52.30
66140;DHT22;52945;51.908;8.364;2023-03-05T14:30:22;9.40;51.50
66140;DHT22;52945;51.908;8.364;2023-03-05T14:33:29;9.40;50.20
66140;DHT22;52945;51.908;8.364;2023-03-05T14:36:31;9.40;50.10
66140;DHT22;52945;51.908;8.364;2023-03-05T14:39:50;9.40;49.90
66140;DHT22;52945;51.908;8.364;2023-03-05T14:43:05;9.40;49.40
66140;DHT22;52945;51.908;8.364;2023-03-05T14:46:07;9.50;49.80
66140;DHT22;52945;51.908;8.364;2023-03-05T14:49:08;9.40;49.30
66140;DHT22;52945;51.908;8.364;2023-03-05T14:52:13;9.30;49.40
66140;DHT22;52945;51.908;8.364;2023-03-05T14:55:20;9.30;50.20
66140;DHT22;52945;51.908;8.364;2023-03-05T14:58:28;9.40;50.50
66140;DHT22;52945;51.908;8.364;2023-03-05T15:01:31;9.40;50.80
66140;DHT22;52945;51.908;8.364;2023-03-05T15:04:32;9.40;50.50
66140;DHT22;52945;51.908;8.364;2023-03-05T15:07:32;9.30;49.60
66140;DHT22;52945;51.908;8.364;2023-03-05T15:10:33;9.30;49.00
66140;DHT22;52945;51.908;8.364;2023-03-05T15:13:33;9.20;49.40
66140;DHT22;52945;51.908;8.364;2023-03-05T15:16:36;9.20;49.60
66140;DHT22;52945;51.908;8.364;2023-03-05T15:19:36;9.20;49.70
66140;DHT22;52945;51.908;8.364;2023-03-05T15:22:37;9.10;49.90
66140;DHT22;52945;51.908;8.364;2023-03-05T15:25:38;9.10;50.30
66140;DHT22;52945;51.908;8.364;2023-03-05T15:28:39;9.10;50.70
66140;DHT22;52945;51.908;8.364;2023-03-05T15:31:40;9.10;50.30
66140;DHT22;52945;51.908;8.364;2023-03-05T15:34:41;9.10;50.40
66140;DHT22;52945;51.908;8.364;2023-03-05T15:37:41;9.10;50.80
66140;DHT22;52945;51.908;8.364;2023-03-05T15:40:42;9.00;50.50
66140;DHT22;52945;51.908;8.364;2023-03-05T15:43:43;9.00;50.60
66140;DHT22;52945;51.908;8.364;2023-03-05T15:46:44;9.00;50.00
66140;DHT22;52945;51.908;8.364;2023-03-05T15:49:44;9.00;50.40
66140;DHT22;52945;51.908;8.364;2023-03-05T15:52:45;8.90;50.20
66140;DHT22;52945;51.908;8.364;2023-03-05T15:55:46;9.00;50.00
66140;DHT22;52945;51.908;8.364;2023-03-05T15:58:48;8.90;49.50
66140;DHT22;52945;51.908;8.364;2023-03-05T16:01:50;9.00;49.50
66140;DHT22;52945;51.908;8.364;2023-03-05T16:04:51;9.00;49.20
66140;DHT22;52945;51.908;8.364;2023-03-05T16:07:52;9.00;49.20
66140;DHT22;52945;51.908;8.364;2023-03-05T16:10:53;9.00;49.00
66140;DHT22;52945;51.908;8.364;2023-03-05T16:13:54;9.10;48.70
66140;DHT22;52945;51.908;8.364;2023-03-05T16:16:55;9.00;49.00
66140;DHT22;52945;51.908;8.364;2023-03-05T16:19:57;9.10;49.20
66140;DHT22;52945;51.908;8.364;2023-03-05T16:22:58;9.10;49.30
66140;DHT22;52945;51.908;8.364;2023-03-05T16:25:58;9.10;49.40
66140;DHT22;52945;51.908;8.364;2023-03-05T16:28:59;9.00;48.90
66140;DHT22;52945;51.908;8.364;2023-03-05T16:32:04;9.00;49.10
66140;DHT22;52945;51.908;8.364;2023-03-05T16:35:05;9.00;49.10
66140;DHT22;52945;51.908;8.364;2023-03-05T16:38:05;8.90;49.30
66140;DHT22;52945;51.908;8.364;2023-03-05T16:41:07;9.00;49.50
66140;DHT22;52945;51.908;8.364;2023-03-05T16:44:08;9.00;49.10
66140;DHT22;52945;51.908;8.364;2023-03-05T16:47:10;8.90;49.50
66140;DHT22;52945;51.908;8.364;2023-03-05T16:50:11;8.80;49.80
66140;DHT22;52945;51.908;8.364;2023-03-05T16:53:12;8.80;50.10
66140;DHT22;52945;51.908;8.364;2023-03-05T16:56:13;8.80;50.40
66140;DHT22;52945;51.908;8.364;2023-03-05T16:59:14;8.80;50.60
66140;DHT22;52945;51.908;8.364;2023-03-05T17:02:14;8.80;50.50
66140;DHT22;52945;51.908;8.364;2023-03-05T17:05:15;8.70;50.30
66140;DHT22;52945;51.908;8.364;2023-03-05T17:08:16;8.70;50.80
66140;DHT22;52945;51.908;8.364;2023-03-05T17:11:17;8.70;50.90
66140;DHT22;52945;51.908;8.364;2023-03-05T17:14:18;8.70;50.90
66140;DHT22;52945;51.908;8.364;2023-03-05T17:17:19;8.60;51.40
66140;DHT22;52945;51.908;8.364;2023-03-05T17:20:20;8.60;51.70
66140;DHT22;52945;51.908;8.364;2023-03-05T17:23:21;8.60;51.40
66140;DHT22;52945;51.908;8.364;2023-03-05T17:26:22;8.60;51.20
66140;DHT22;52945;51.908;8.364;2023-03-05T17:29:23;8.50;51.40
66140;DHT22;52945;51.908;8.364;2023-03-05T17:32:24;8.50;51.60
66140;DHT22;52945;51.908;8.364;2023-03-05T17:35:25;8.50;51.60
66140;DHT22;52945;51.908;8.364;2023-03-05T17:38:26;8.50;51.90
66140;DHT22;52945;51.908;8.364;2023-03-05T17:41:26;8.50;51.80
66140;DHT22;52945;51.908;8.364;2023-03-05T17:44:27;8.40;52.10
66140;DHT22;52945;51.908;8.364;2023-03-05T17:47:28;8.40;52.10
66140;DHT22;52945;51.908;8.364;2023-03-05T17:50:31;8.50;52.30
66140;DHT22;52945;51.908;8.364;2023-03-05T17:53:32;8.40;52.20
66140;DHT22;52945;51.908;8.364;2023-03-05T17:56:34;8.30;52.40
66140;DHT22;52945;51.908;8.364;2023-03-05T17:59:34;8.30;52.50
66140;DHT22;52945;51.908;8.364;2023-03-05T18:02:35;8.30;52.60
66140;DHT22;52945;51.908;8.364;2023-03-05T18:05:36;8.30;52.70
66140;DHT22;52945;51.908;8.364;2023-03-05T18:08:36;8.30;53.10
66140;DHT22;52945;51.908;8.364;2023-03-05T18:11:37;8.30;53.20
66140;DHT22;52945;51.908;8.364;2023-03-05T18:14:37;8.20;53.20
66140;DHT22;52945;51.908;8.364;2023-03-05T18:17:38;8.20;53.20
66140;DHT22;52945;51.908;8.364;2023-03-05T18:20:39;8.20;53.40
66140;DHT22;52945;51.908;8.364;2023-03-05T18:23:41;8.20;53.40
66140;DHT22;52945;51.908;8.364;2023-03-05T18:26:41;8.20;53.80
66140;DHT22;52945;51.908;8.364;2023-03-05T18:29:42;8.20;53.80
66140;DHT22;52945;51.908;8.364;2023-03-05T18:32:42;8.20;53.70
66140;DHT22;52945;51.908;8.364;2023-03-05T18:35:44;8.20;54.00
66140;DHT22;52945;51.908;8.364;2023-03-05T18:38:45;8.10;54.00
66140;DHT22;52945;51.908;8.364;2023-03-05T18:41:46;8.20;54.60
66140;DHT22;52945;51.908;8.364;2023-03-05T18:44:47;8.10;54.60
66140;DHT22;52945;51.908;8.364;2023-03-05T18:47:47;8.10;54.60
66140;DHT22;52945;51.908;8.364;2023-03-05T18:50:53;8.10;54.80
66140;DHT22;52945;51.908;8.364;2023-03-05T18:53:54;8.10;54.80
66140;DHT22;52945;51.908;8.364;2023-03-05T18:56:56;8.10;55.10
66140;DHT22;52945;51.908;8.364;2023-03-05T18:59:57;8.00;55.20
66140;DHT22;52945;51.908;8.364;2023-03-05T19:02:57;8.00;55.40
66140;DHT22;52945;51.908;8.364;2023-03-05T19:05:58;8.00;55.70
66140;DHT22;52945;51.908;8.364;2023-03-05T19:08:59;8.00;55.80
66140;DHT22;52945;51.908;8.364;2023-03-05T19:12:04;8.00;55.70
66140;DHT22;52945;51.908;8.364;2023-03-05T19:15:06;7.90;56.00
66140;DHT22;52945;51.908;8.364;2023-03-05T19:18:07;7.90;56.20
66140;DHT22;52945;51.908;8.364;2023-03-05T19:21:07;7.90;56.30
66140;DHT22;52945;51.908;8.364;2023-03-05T19:24:08;7.80;56.50
66140;DHT22;52945;51.908;8.364;2023-03-05T19:27:10;7.80;56.70
66140;DHT22;52945;51.908;8.364;2023-03-05T19:30:12;7.80;56.90
66140;DHT22;52945;51.908;8.364;2023-03-05T19:33:15;7.80;57.00
66140;DHT22;52945;51.908;8.364;2023-03-05T19:36:16;7.80;57.20
66140;DHT22;52945;51.908;8.364;2023-03-05T19:39:16;7.80;57.20
66140;DHT22;52945;51.908;8.364;2023-03-05T19:42:19;7.70;57.20
66140;DHT22;52945;51.908;8.364;2023-03-05T19:45:19;7.70;57.20
66140;DHT22;52945;51.908;8.364;2023-03-05T19:48:20;7.70;57.40
66140;DHT22;52945;51.908;8.364;2023-03-05T19:51:23;7.70;57.50
66140;DHT22;52945;51.908;8.364;2023-03-05T19:54:24;7.70;57.70
66140;DHT22;52945;51.908;8.364;2023-03-05T19:57:24;7.70;57.70
66140;DHT22;52945;51.908;8.364;2023-03-05T20:00:25;7.70;57.80
66140;DHT22;52945;51.908;8.364;2023-03-05T20:03:26;7.70;57.90
66140;DHT22;52945;51.908;8.364;2023-03-05T20:06:29;7.60;58.20
66140;DHT22;52945;51.908;8.364;2023-03-05T20:09:30;7.60;58.10
66140;DHT22;52945;51.908;8.364;2023-03-05T20:12:30;7.60;58.30
66140;DHT22;52945;51.908;8.364;2023-03-05T20:15:31;7.60;58.50
66140;DHT22;52945;51.908;8.364;2023-03-05T20:18:32;7.60;58.60
66140;DHT22;52945;51.908;8.364;2023-03-05T20:21:38;7.60;58.70
66140;DHT22;52945;51.908;8.364;2023-03-05T20:24:39;7.60;58.90
66140;DHT22;52945;51.908;8.364;2023-03-05T20:27:40;7.60;59.00